sensor_id;sensor_type;location;lat;lon;timestamp;pressure;altitude;pressure_sealevel;temperature;humidity
44765;BME280;30484;52.382;5.260;2023-07-24T00:02:13;100509.66;;;21.42;100.00
44765;BME280;30484;52.382;5.260;2023-07-24T00:04:42;100496.63;;;21.45;100.00
44765;BME280;30484;52.382;5.260;2023-07-24T00:07:10;100501.91;;;21.29;100.00
44765;BME280;30484;52.382;5.260;2023-07-24T00:09:38;100503.22;;;21.43;100.00
44765;BME280;30484;52.382;5.260;2023-07-24T00:12:08;100487.41;;;21.56;100.00
44765;BME280;30484;52.382;5.260;2023-07-24T00:14:36;100498.75;;;21.15;100.00
44765;BME280;30484;52.382;5.260;2023-07-24T00:17:08;100505.25;;;21.23;100.00
44765;BME280;30484;52.382;5.260;2023-07-24T00:19:37;100511.38;;;21.25;100.00
44765;BME280;30484;52.382;5.260;2023-07-24T00:22:06;100508.13;;;21.21;100.00
44765;BME280;30484;52.382;5.260;2023-07-24T00:24:34;100505.72;;;21.36;100.00
44765;BME280;30484;52.382;5.260;2023-07-24T00:27:03;100499.19;;;21.29;100.00
44765;BME280;30484;52.382;5.260;2023-07-24T00:29:32;100500.22;;;21.28;100.00
44765;BME280;30484;52.382;5.260;2023-07-24T00:32:01;100488.59;;;21.53;100.00
44765;BME280;30484;52.382;5.260;2023-07-24T00:34:31;100487.84;;;21.33;100.00
44765;BME280;30484;52.382;5.260;2023-07-24T00:36:59;100474.34;;;21.42;100.00
44765;BME280;30484;52.382;5.260;2023-07-24T00:39:28;100481.59;;;20.97;100.00
44765;BME280;30484;52.382;5.260;2023-07-24T00:41:56;100477.16;;;21.14;100.00
44765;BME280;30484;52.382;5.260;2023-07-24T00:44:25;100469.63;;;21.26;100.00
44765;BME280;30484;52.382;5.260;2023-07-24T00:46:54;100475.69;;;21.19;100.00
44765;BME280;30484;52.382;5.260;2023-07-24T00:49:22;100478.97;;;21.05;100.00
44765;BME280;30484;52.382;5.260;2023-07-24T00:51:53;100470.72;;;20.97;100.00
44765;BME280;30484;52.382;5.260;2023-07-24T00:54:22;100468.75;;;20.89;100.00
44765;BME280;30484;52.382;5.260;2023-07-24T00:56:52;100468.16;;;20.95;100.00
44765;BME280;30484;52.382;5.260;2023-07-24T00:59:21;100443.78;;;21.21;100.00
44765;BME280;30484;52.382;5.260;2023-07-24T01:01:50;100454.66;;;21.03;100.00
44765;BME280;30484;52.382;5.260;2023-07-24T01:04:19;100453.47;;;21.06;100.00
44765;BME280;30484;52.382;5.260;2023-07-24T01:06:47;100451.19;;;20.65;100.00
44765;BME280;30484;52.382;5.260;2023-07-24T01:09:37;100452.91;;;20.66;100.00
44765;BME280;30484;52.382;5.260;2023-07-24T01:12:13;100443.47;;;20.89;100.00
44765;BME280;30484;52.382;5.260;2023-07-24T01:14:47;100444.03;;;20.64;100.00
44765;BME280;30484;52.382;5.260;2023-07-24T01:17:25;100443.38;;;20.80;100.00
44765;BME280;30484;52.382;5.260;2023-07-24T01:19:59;100440.56;;;20.72;100.00
44765;BME280;30484;52.382;5.260;2023-07-24T01:22:38;100441.84;;;20.96;100.00
44765;BME280;30484;52.382;5.260;2023-07-24T01:25:22;100440.78;;;20.61;100.00
44765;BME280;30484;52.382;5.260;2023-07-24T01:27:52;100448.28;;;20.77;100.00
44765;BME280;30484;52.382;5.260;2023-07-24T01:30:22;100450.63;;;20.90;100.00
44765;BME280;30484;52.382;5.260;2023-07-24T01:32:52;100445.66;;;20.85;100.00
44765;BME280;30484;52.382;5.260;2023-07-24T01:35:22;100443.81;;;21.03;100.00
44765;BME280;30484;52.382;5.260;2023-07-24T01:37:53;100438.97;;;20.79;100.00
44765;BME280;30484;52.382;5.260;2023-07-24T01:40:23;100444.41;;;20.79;100.00
44765;BME280;30484;52.382;5.260;2023-07-24T01:42:54;100450.41;;;21.01;100.00
44765;BME280;30484;52.382;5.260;2023-07-24T01:45:22;100442.94;;;21.03;100.00
44765;BME280;30484;52.382;5.260;2023-07-24T01:47:51;100443.09;;;21.01;100.00
44765;BME280;30484;52.382;5.260;2023-07-24T01:50:20;100436.31;;;20.88;100.00
44765;BME280;30484;52.382;5.260;2023-07-24T01:52:48;100426.56;;;20.77;100.00
44765;BME280;30484;52.382;5.260;2023-07-24T01:55:17;100428.22;;;20.60;100.00
44765;BME280;30484;52.382;5.260;2023-07-24T01:57:45;100420.97;;;21.14;100.00
44765;BME280;30484;52.382;5.260;2023-07-24T02:00:15;100424.16;;;20.92;100.00
44765;BME280;30484;52.382;5.260;2023-07-24T02:02:44;100427.88;;;21.09;100.00
44765;BME280;30484;52.382;5.260;2023-07-24T02:05:12;100421.69;;;21.16;100.00
44765;BME280;30484;52.382;5.260;2023-07-24T02:07:41;100426.13;;;20.99;100.00
44765;BME280;30484;52.382;5.260;2023-07-24T02:10:10;100422.50;;;21.35;100.00
44765;BME280;30484;52.382;5.260;2023-07-24T02:12:38;100431.00;;;20.96;100.00
44765;BME280;30484;52.382;5.260;2023-07-24T02:15:08;100423.38;;;21.17;100.00
44765;BME280;30484;52.382;5.260;2023-07-24T02:17:38;100421.44;;;21.28;100.00
44765;BME280;30484;52.382;5.260;2023-07-24T02:20:08;100415.63;;;21.23;100.00
44765;BME280;30484;52.382;5.260;2023-07-24T02:22:36;100420.72;;;21.26;100.00
44765;BME280;30484;52.382;5.260;2023-07-24T02:25:06;100408.78;;;21.18;100.00
44765;BME280;30484;52.382;5.260;2023-07-24T02:27:34;100402.91;;;21.05;100.00
44765;BME280;30484;52.382;5.260;2023-07-24T02:30:03;100405.13;;;21.28;100.00
44765;BME280;30484;52.382;5.260;2023-07-24T02:32:32;100403.34;;;21.18;100.00
44765;BME280;30484;52.382;5.260;2023-07-24T02:35:03;100404.91;;;21.03;100.00
44765;BME280;30484;52.382;5.260;2023-07-24T02:37:31;100395.88;;;21.20;100.00
44765;BME280;30484;52.382;5.260;2023-07-24T02:39:59;100394.63;;;21.33;100.00
44765;BME280;30484;52.382;5.260;2023-07-24T02:42:28;100391.56;;;21.10;100.00
44765;BME280;30484;52.382;5.260;2023-07-24T02:44:56;100387.19;;;21.35;100.00
44765;BME280;30484;52.382;5.260;2023-07-24T02:47:24;100390.34;;;21.04;100.00
44765;BME280;30484;52.382;5.260;2023-07-24T02:49:53;100388.09;;;21.44;100.00
44765;BME280;30484;52.382;5.260;2023-07-24T02:52:22;100386.38;;;21.43;100.00
44765;BME280;30484;52.382;5.260;2023-07-24T02:54:51;100382.22;;;21.30;100.00
44765;BME280;30484;52.382;5.260;2023-07-24T02:57:20;100384.25;;;21.28;100.00
44765;BME280;30484;52.382;5.260;2023-07-24T02:59:51;100392.97;;;21.40;100.00
44765;BME280;30484;52.382;5.260;2023-07-24T03:02:22;100389.34;;;21.05;100.00
44765;BME280;30484;52.382;5.260;2023-07-24T03:04:50;100399.06;;;21.34;100.00
44765;BME280;30484;52.382;5.260;2023-07-24T03:07:19;100404.75;;;21.23;100.00
44765;BME280;30484;52.382;5.260;2023-07-24T03:09:51;100405.38;;;21.16;100.00
44765;BME280;30484;52.382;5.260;2023-07-24T03:12:19;100399.28;;;21.41;100.00
44765;BME280;30484;52.382;5.260;2023-07-24T03:14:47;100392.13;;;21.40;100.00
44765;BME280;30484;52.382;5.260;2023-07-24T03:17:16;100379.47;;;21.48;100.00
44765;BME280;30484;52.382;5.260;2023-07-24T03:19:44;100392.91;;;21.32;100.00
44765;BME280;30484;52.382;5.260;2023-07-24T03:22:13;100387.59;;;21.22;100.00
44765;BME280;30484;52.382;5.260;2023-07-24T03:24:41;100376.19;;;21.18;100.00
44765;BME280;30484;52.382;5.260;2023-07-24T03:27:11;100377.41;;;21.24;100.00
44765;BME280;30484;52.382;5.260;2023-07-24T03:29:39;100375.66;;;21.41;100.00
44765;BME280;30484;52.382;5.260;2023-07-24T03:32:08;100388.34;;;21.32;100.00
44765;BME280;30484;52.382;5.260;2023-07-24T03:34:36;100389.59;;;21.20;100.00
44765;BME280;30484;52.382;5.260;2023-07-24T03:37:05;100380.38;;;21.13;100.00
44765;BME280;30484;52.382;5.260;2023-07-24T03:39:33;100362.53;;;21.10;100.00
44765;BME280;30484;52.382;5.260;2023-07-24T03:42:03;100343.72;;;21.35;100.00
44765;BME280;30484;52.382;5.260;2023-07-24T03:44:32;100370.16;;;20.89;100.00
44765;BME280;30484;52.382;5.260;2023-07-24T03:47:01;100368.53;;;21.14;100.00
44765;BME280;30484;52.382;5.260;2023-07-24T03:49:29;100354.84;;;21.24;100.00
44765;BME280;30484;52.382;5.260;2023-07-24T03:51:58;100347.59;;;21.32;100.00
44765;BME280;30484;52.382;5.260;2023-07-24T03:54:26;100355.53;;;21.26;100.00
44765;BME280;30484;52.382;5.260;2023-07-24T03:56:55;100363.66;;;20.99;100.00
44765;BME280;30484;52.382;5.260;2023-07-24T03:59:23;100367.59;;;20.87;100.00
44765;BME280;30484;52.382;5.260;2023-07-24T04:01:55;100366.22;;;21.01;100.00
44765;BME280;30484;52.382;5.260;2023-07-24T04:04:24;100365.56;;;20.89;100.00
44765;BME280;30484;52.382;5.260;2023-07-24T04:06:52;100368.13;;;20.91;100.00
44765;BME280;30484;52.382;5.260;2023-07-24T04:09:21;100370.19;;;21.15;100.00
44765;BME280;30484;52.382;5.260;2023-07-24T04:11:49;100366.13;;;20.93;100.00
44765;BME280;30484;52.382;5.260;2023-07-24T04:14:24;100362.22;;;21.13;100.00
44765;BME280;30484;52.382;5.260;2023-07-24T04:17:13;100362.22;;;21.13;100.00
44765;BME280;30484;52.382;5.260;2023-07-24T04:19:42;100361.78;;;21.00;100.00
44765;BME280;30484;52.382;5.260;2023-07-24T04:22:10;100368.13;;;20.91;100.00
44765;BME280;30484;52.382;5.260;2023-07-24T04:24:41;100350.47;;;20.86;100.00
44765;BME280;30484;52.382;5.260;2023-07-24T04:27:10;100355.72;;;21.06;100.00
44765;BME280;30484;52.382;5.260;2023-07-24T04:29:38;100368.59;;;21.04;100.00
44765;BME280;30484;52.382;5.260;2023-07-24T04:32:07;100367.13;;;21.10;100.00
44765;BME280;30484;52.382;5.260;2023-07-24T04:34:37;100353.78;;;21.16;100.00
44765;BME280;30484;52.382;5.260;2023-07-24T04:37:06;100358.72;;;21.21;100.00
44765;BME280;30484;52.382;5.260;2023-07-24T04:39:34;100367.88;;;21.02;100.00
44765;BME280;30484;52.382;5.260;2023-07-24T04:42:04;100369.13;;;21.08;100.00
44765;BME280;30484;52.382;5.260;2023-07-24T04:44:33;100362.22;;;21.13;100.00
44765;BME280;30484;52.382;5.260;2023-07-24T04:47:02;100358.78;;;20.85;100.00
44765;BME280;30484;52.382;5.260;2023-07-24T04:49:30;100357.81;;;20.94;100.00
44765;BME280;30484;52.382;5.260;2023-07-24T04:52:01;100358.91;;;21.01;100.00
44765;BME280;30484;52.382;5.260;2023-07-24T04:54:29;100358.34;;;21.16;100.00
44765;BME280;30484;52.382;5.260;2023-07-24T04:56:57;100358.25;;;21.08;100.00
44765;BME280;30484;52.382;5.260;2023-07-24T04:59:29;100358.84;;;20.75;100.00
44765;BME280;30484;52.382;5.260;2023-07-24T05:01:57;100366.63;;;21.14;100.00
44765;BME280;30484;52.382;5.260;2023-07-24T05:04:25;100358.25;;;21.08;100.00
44765;BME280;30484;52.382;5.260;2023-07-24T05:06:54;100353.47;;;21.01;100.00
44765;BME280;30484;52.382;5.260;2023-07-24T05:09:23;100360.72;;;21.19;100.00
44765;BME280;30484;52.382;5.260;2023-07-24T05:11:52;100358.25;;;21.08;100.00
44765;BME280;30484;52.382;5.260;2023-07-24T05:14:27;100366.56;;;21.06;100.00
44765;BME280;30484;52.382;5.260;2023-07-24T05:16:58;100365.34;;;21.00;100.00
44765;BME280;30484;52.382;5.260;2023-07-24T05:19:27;100365.44;;;21.35;100.00
44765;BME280;30484;52.382;5.260;2023-07-24T05:21:55;100365.41;;;21.09;100.00
44765;BME280;30484;52.382;5.260;2023-07-24T05:24:27;100364.16;;;21.21;100.00
44765;BME280;30484;52.382;5.260;2023-07-24T05:26:55;100369.81;;;21.28;100.00
44765;BME280;30484;52.382;5.260;2023-07-24T05:29:24;100362.88;;;21.33;100.00
44765;BME280;30484;52.382;5.260;2023-07-24T05:31:52;100365.22;;;21.28;100.00
44765;BME280;30484;52.382;5.260;2023-07-24T05:34:21;100358.38;;;21.42;100.00
44765;BME280;30484;52.382;5.260;2023-07-24T05:36:49;100366.13;;;21.37;100.00
44765;BME280;30484;52.382;5.260;2023-07-24T05:39:20;100371.41;;;21.57;100.00
44765;BME280;30484;52.382;5.260;2023-07-24T05:41:50;100368.72;;;21.65;100.00
44765;BME280;30484;52.382;5.260;2023-07-24T05:44:38;100361.69;;;21.88;100.00
44765;BME280;30484;52.382;5.260;2023-07-24T05:47:07;100360.31;;;21.84;100.00
44765;BME280;30484;52.382;5.260;2023-07-24T05:49:35;100358.47;;;21.85;100.00
44765;BME280;30484;52.382;5.260;2023-07-24T05:52:06;100359.47;;;21.84;100.00
44765;BME280;30484;52.382;5.260;2023-07-24T05:54:35;100343.06;;;22.02;100.00
44765;BME280;30484;52.382;5.260;2023-07-24T05:57:06;100358.34;;;22.03;100.00
44765;BME280;30484;52.382;5.260;2023-07-24T05:59:35;100357.13;;;21.97;100.00
44765;BME280;30484;52.382;5.260;2023-07-24T06:02:03;100351.97;;;22.20;100.00
44765;BME280;30484;52.382;5.260;2023-07-24T06:04:32;100348.59;;;22.27;100.00
44765;BME280;30484;52.382;5.260;2023-07-24T06:07:00;100355.19;;;22.24;100.00
44765;BME280;30484;52.382;5.260;2023-07-24T06:09:29;100346.88;;;22.26;100.00
44765;BME280;30484;52.382;5.260;2023-07-24T06:11:58;100359.03;;;21.97;100.00
44765;BME280;30484;52.382;5.260;2023-07-24T06:14:28;100353.06;;;22.44;100.00
44765;BME280;30484;52.382;5.260;2023-07-24T06:16:56;100351.41;;;22.60;100.00
44765;BME280;30484;52.382;5.260;2023-07-24T06:19:24;100349.41;;;22.27;100.00
44765;BME280;30484;52.382;5.260;2023-07-24T06:21:53;100353.25;;;22.00;100.00
44765;BME280;30484;52.382;5.260;2023-07-24T06:24:21;100356.56;;;22.28;100.00
44765;BME280;30484;52.382;5.260;2023-07-24T06:26:50;100349.44;;;21.84;100.00
44765;BME280;30484;52.382;5.260;2023-07-24T06:29:19;100353.03;;;22.36;100.00
44765;BME280;30484;52.382;5.260;2023-07-24T06:31:50;100349.84;;;21.98;100.00
44765;BME280;30484;52.382;5.260;2023-07-24T06:34:19;100348.91;;;22.23;100.00
44765;BME280;30484;52.382;5.260;2023-07-24T06:36:47;100351.75;;;22.05;100.00
44765;BME280;30484;52.382;5.260;2023-07-24T06:39:16;100357.03;;;22.66;100.00
44765;BME280;30484;52.382;5.260;2023-07-24T06:41:44;100353.28;;;22.59;100.00
44765;BME280;30484;52.382;5.260;2023-07-24T06:44:12;100353.56;;;22.39;100.00
44765;BME280;30484;52.382;5.260;2023-07-24T06:46:41;100347.31;;;22.55;100.00
44765;BME280;30484;52.382;5.260;2023-07-24T06:49:11;100355.50;;;22.97;100.00
44765;BME280;30484;52.382;5.260;2023-07-24T06:51:40;100358.59;;;23.02;100.00
44765;BME280;30484;52.382;5.260;2023-07-24T06:54:08;100354.69;;;23.13;100.00
44765;BME280;30484;52.382;5.260;2023-07-24T06:56:37;100354.25;;;23.65;100.00
44765;BME280;30484;52.382;5.260;2023-07-24T06:59:05;100350.91;;;23.47;100.00
44765;BME280;30484;52.382;5.260;2023-07-24T07:01:33;100349.03;;;24.03;100.00
44765;BME280;30484;52.382;5.260;2023-07-24T07:04:02;100358.88;;;23.65;100.00
44765;BME280;30484;52.382;5.260;2023-07-24T07:06:32;100359.63;;;23.98;100.00
44765;BME280;30484;52.382;5.260;2023-07-24T07:09:03;100359.50;;;23.91;100.00
44765;BME280;30484;52.382;5.260;2023-07-24T07:11:32;100356.44;;;24.26;100.00
44765;BME280;30484;52.382;5.260;2023-07-24T07:14:00;100357.31;;;24.18;100.00
44765;BME280;30484;52.382;5.260;2023-07-24T07:16:29;100359.03;;;24.19;100.00
44765;BME280;30484;52.382;5.260;2023-07-24T07:18:57;100364.78;;;23.85;100.00
44765;BME280;30484;52.382;5.260;2023-07-24T07:21:26;100360.13;;;24.02;100.00
44765;BME280;30484;52.382;5.260;2023-07-24T07:23:56;100351.31;;;23.91;100.00
44765;BME280;30484;52.382;5.260;2023-07-24T07:26:24;100350.63;;;23.81;100.00
44765;BME280;30484;52.382;5.260;2023-07-24T07:28:54;100355.16;;;24.05;100.00
44765;BME280;30484;52.382;5.260;2023-07-24T07:31:22;100358.09;;;23.95;100.00
44765;BME280;30484;52.382;5.260;2023-07-24T07:33:51;100347.25;;;24.19;100.00
44765;BME280;30484;52.382;5.260;2023-07-24T07:36:19;100344.44;;;23.95;100.00
44765;BME280;30484;52.382;5.260;2023-07-24T07:38:49;100345.13;;;24.06;100.00
44765;BME280;30484;52.382;5.260;2023-07-24T07:41:19;100358.53;;;24.47;100.00
44765;BME280;30484;52.382;5.260;2023-07-24T07:43:47;100350.88;;;24.42;100.00
44765;BME280;30484;52.382;5.260;2023-07-24T07:46:16;100340.84;;;24.35;100.00
44765;BME280;30484;52.382;5.260;2023-07-24T07:48:44;100341.25;;;24.23;100.00
44765;BME280;30484;52.382;5.260;2023-07-24T07:51:13;100332.63;;;24.89;100.00
44765;BME280;30484;52.382;5.260;2023-07-24T07:53:42;100338.97;;;24.58;100.00
44765;BME280;30484;52.382;5.260;2023-07-24T07:56:10;100328.91;;;25.05;100.00
44765;BME280;30484;52.382;5.260;2023-07-24T07:58:40;100330.53;;;25.14;100.00
44765;BME280;30484;52.382;5.260;2023-07-24T08:01:09;100324.78;;;25.32;100.00
44765;BME280;30484;52.382;5.260;2023-07-24T08:03:37;100323.22;;;24.92;100.00
44765;BME280;30484;52.382;5.260;2023-07-24T08:06:06;100319.94;;;24.50;100.00
44765;BME280;30484;52.382;5.260;2023-07-24T08:08:34;100314.38;;;24.67;100.00
44765;BME280;30484;52.382;5.260;2023-07-24T08:11:04;100317.13;;;25.05;100.00
44765;BME280;30484;52.382;5.260;2023-07-24T08:13:34;100307.56;;;24.62;100.00
44765;BME280;30484;52.382;5.260;2023-07-24T08:16:13;100314.47;;;24.96;100.00
44765;BME280;30484;52.382;5.260;2023-07-24T08:18:46;100314.41;;;25.20;100.00
44765;BME280;30484;52.382;5.260;2023-07-24T08:21:15;100313.38;;;25.59;100.00
44765;BME280;30484;52.382;5.260;2023-07-24T08:23:43;100304.19;;;25.66;100.00
44765;BME280;30484;52.382;5.260;2023-07-24T08:26:12;100312.50;;;25.43;100.00
44765;BME280;30484;52.382;5.260;2023-07-24T08:28:40;100315.81;;;25.39;100.00
44765;BME280;30484;52.382;5.260;2023-07-24T08:31:13;100302.41;;;25.59;100.00
44765;BME280;30484;52.382;5.260;2023-07-24T08:33:45;100304.38;;;26.10;100.00
44765;BME280;30484;52.382;5.260;2023-07-24T08:36:16;100304.09;;;25.90;100.00
44765;BME280;30484;52.382;5.260;2023-07-24T08:38:45;100323.03;;;26.21;100.00
44765;BME280;30484;52.382;5.260;2023-07-24T08:41:15;100322.13;;;26.14;100.00
44765;BME280;30484;52.382;5.260;2023-07-24T08:43:47;100328.06;;;25.43;100.00
44765;BME280;30484;52.382;5.260;2023-07-24T08:46:18;100331.28;;;25.91;100.00
44765;BME280;30484;52.382;5.260;2023-07-24T08:48:47;100324.84;;;26.14;100.00
44765;BME280;30484;52.382;5.260;2023-07-24T08:51:16;100320.38;;;25.98;100.00
44765;BME280;30484;52.382;5.260;2023-07-24T08:53:46;100311.59;;;26.32;100.00
44765;BME280;30484;52.382;5.260;2023-07-24T08:56:15;100311.69;;;26.24;100.00
44765;BME280;30484;52.382;5.260;2023-07-24T08:58:44;100312.94;;;26.43;100.00
44765;BME280;30484;52.382;5.260;2023-07-24T09:01:12;100309.44;;;26.49;100.00
44765;BME280;30484;52.382;5.260;2023-07-24T09:03:42;100317.19;;;26.24;100.00
44765;BME280;30484;52.382;5.260;2023-07-24T09:06:11;100299.53;;;26.48;100.00
44765;BME280;30484;52.382;5.260;2023-07-24T09:08:41;100311.34;;;26.70;100.00
44765;BME280;30484;52.382;5.260;2023-07-24T09:11:14;100305.91;;;26.99;100.00
44765;BME280;30484;52.382;5.260;2023-07-24T09:13:43;100305.00;;;26.92;100.00
44765;BME280;30484;52.382;5.260;2023-07-24T09:16:21;100295.28;;;26.67;100.00
44765;BME280;30484;52.382;5.260;2023-07-24T09:18:53;100290.13;;;27.29;100.00
44765;BME280;30484;52.382;5.260;2023-07-24T09:21:30;100293.69;;;27.30;100.00
44765;BME280;30484;52.382;5.260;2023-07-24T09:24:10;100292.25;;;27.06;100.00
44765;BME280;30484;52.382;5.260;2023-07-24T09:26:49;100300.16;;;27.44;100.00
44765;BME280;30484;52.382;5.260;2023-07-24T09:29:31;100291.44;;;27.12;100.00
44765;BME280;30484;52.382;5.260;2023-07-24T09:32:00;100293.28;;;26.76;100.00
44765;BME280;30484;52.382;5.260;2023-07-24T09:34:32;100286.06;;;26.68;100.00
44765;BME280;30484;52.382;5.260;2023-07-24T09:37:00;100292.53;;;26.89;100.00
44765;BME280;30484;52.382;5.260;2023-07-24T09:39:29;100301.78;;;27.10;100.00
44765;BME280;30484;52.382;5.260;2023-07-24T09:42:03;100305.59;;;26.87;100.00
44765;BME280;30484;52.382;5.260;2023-07-24T09:44:32;100293.72;;;26.37;100.00
44765;BME280;30484;52.382;5.260;2023-07-24T09:47:01;100287.22;;;26.81;100.00
44765;BME280;30484;52.382;5.260;2023-07-24T09:49:52;100290.00;;;26.66;100.00
44765;BME280;30484;52.382;5.260;2023-07-24T09:52:21;100278.78;;;26.39;100.00
44765;BME280;30484;52.382;5.260;2023-07-24T09:54:58;100282.19;;;26.05;100.00
44765;BME280;30484;52.382;5.260;2023-07-24T09:57:28;100270.34;;;25.82;100.00
44765;BME280;30484;52.382;5.260;2023-07-24T09:59:57;100273.56;;;25.71;100.00
44765;BME280;30484;52.382;5.260;2023-07-24T10:02:27;100276.09;;;25.73;100.00
44765;BME280;30484;52.382;5.260;2023-07-24T10:04:57;100277.03;;;26.31;100.00
44765;BME280;30484;52.382;5.260;2023-07-24T10:07:26;100267.88;;;26.24;100.00
44765;BME280;30484;52.382;5.260;2023-07-24T10:09:55;100272.91;;;26.64;100.00
44765;BME280;30484;52.382;5.260;2023-07-24T10:12:25;100280.38;;;26.70;100.00
44765;BME280;30484;52.382;5.260;2023-07-24T10:14:55;100283.34;;;26.32;100.00
44765;BME280;30484;52.382;5.260;2023-07-24T10:17:35;100277.59;;;27.20;100.00
44765;BME280;30484;52.382;5.260;2023-07-24T10:20:07;100280.63;;;27.03;100.00
44765;BME280;30484;52.382;5.260;2023-07-24T10:22:37;100291.78;;;27.02;100.00
44765;BME280;30484;52.382;5.260;2023-07-24T10:25:12;100277.44;;;27.57;100.00
44765;BME280;30484;52.382;5.260;2023-07-24T10:27:42;100285.56;;;27.15;100.00
44765;BME280;30484;52.382;5.260;2023-07-24T10:30:12;100288.34;;;27.92;100.00
44765;BME280;30484;52.382;5.260;2023-07-24T10:32:46;100275.69;;;27.90;100.00
44765;BME280;30484;52.382;5.260;2023-07-24T10:35:22;100274.91;;;27.55;100.00
44765;BME280;30484;52.382;5.260;2023-07-24T10:37:59;100269.50;;;27.82;100.00
44765;BME280;30484;52.382;5.260;2023-07-24T10:40:28;100271.28;;;27.96;100.00
44765;BME280;30484;52.382;5.260;2023-07-24T10:43:04;100267.44;;;27.42;100.00
44765;BME280;30484;52.382;5.260;2023-07-24T10:45:48;100270.91;;;27.64;100.00
44765;BME280;30484;52.382;5.260;2023-07-24T10:48:17;100270.38;;;27.82;100.00
44765;BME280;30484;52.382;5.260;2023-07-24T10:50:49;100270.31;;;27.34;100.00
44765;BME280;30484;52.382;5.260;2023-07-24T10:53:22;100281.47;;;28.02;100.00
44765;BME280;30484;52.382;5.260;2023-07-24T10:55:51;100269.22;;;28.05;100.00
44765;BME280;30484;52.382;5.260;2023-07-24T10:58:20;100270.13;;;28.32;100.00
44765;BME280;30484;52.382;5.260;2023-07-24T11:00:53;100260.06;;;27.91;100.00
44765;BME280;30484;52.382;5.260;2023-07-24T11:03:24;100270.19;;;27.49;100.00
44765;BME280;30484;52.382;5.260;2023-07-24T11:05:54;100257.63;;;28.16;100.00
44765;BME280;30484;52.382;5.260;2023-07-24T11:08:23;100278.13;;;28.27;100.00
44765;BME280;30484;52.382;5.260;2023-07-24T11:10:53;100265.50;;;27.36;100.00
44765;BME280;30484;52.382;5.260;2023-07-24T11:13:24;100266.84;;;27.95;100.00
44765;BME280;30484;52.382;5.260;2023-07-24T11:15:53;100267.28;;;27.57;100.00
44765;BME280;30484;52.382;5.260;2023-07-24T11:18:22;100265.47;;;28.33;100.00
44765;BME280;30484;52.382;5.260;2023-07-24T11:21:12;100274.66;;;28.93;100.00
44765;BME280;30484;52.382;5.260;2023-07-24T11:23:46;100261.69;;;28.40;100.00
44765;BME280;30484;52.382;5.260;2023-07-24T11:26:15;100260.47;;;28.63;100.00
44765;BME280;30484;52.382;5.260;2023-07-24T11:28:44;100260.53;;;28.01;100.00
44765;BME280;30484;52.382;5.260;2023-07-24T11:31:12;100272.03;;;27.83;100.00
44765;BME280;30484;52.382;5.260;2023-07-24T11:33:43;100272.66;;;27.09;100.00
44765;BME280;30484;52.382;5.260;2023-07-24T11:36:13;100272.19;;;27.33;100.00
44765;BME280;30484;52.382;5.260;2023-07-24T11:38:44;100268.91;;;27.93;100.00
44765;BME280;30484;52.382;5.260;2023-07-24T11:41:13;100257.50;;;28.71;100.00
44765;BME280;30484;52.382;5.260;2023-07-24T11:43:46;100272.31;;;29.04;100.00
44765;BME280;30484;52.382;5.260;2023-07-24T11:46:25;100266.91;;;29.63;100.00
44765;BME280;30484;52.382;5.260;2023-07-24T11:48:57;100277.47;;;29.66;100.00
44765;BME280;30484;52.382;5.260;2023-07-24T11:51:27;100274.03;;;28.85;100.00
44765;BME280;30484;52.382;5.260;2023-07-24T11:54:06;100273.28;;;29.56;100.00
44765;BME280;30484;52.382;5.260;2023-07-24T11:56:35;100282.25;;;28.98;100.00
44765;BME280;30484;52.382;5.260;2023-07-24T11:59:11;100287.41;;;28.13;100.00
44765;BME280;30484;52.382;5.260;2023-07-24T12:01:40;100290.88;;;28.55;100.00
44765;BME280;30484;52.382;5.260;2023-07-24T12:04:08;100285.69;;;28.05;100.00
44765;BME280;30484;52.382;5.260;2023-07-24T12:06:39;100290.09;;;28.88;100.00
44765;BME280;30484;52.382;5.260;2023-07-24T12:09:08;100291.25;;;28.32;100.00
44765;BME280;30484;52.382;5.260;2023-07-24T12:11:42;100286.00;;;28.44;100.00
44765;BME280;30484;52.382;5.260;2023-07-24T12:14:13;100302.34;;;28.72;100.00
44765;BME280;30484;52.382;5.260;2023-07-24T12:16:42;100291.50;;;28.57;100.00
44765;BME280;30484;52.382;5.260;2023-07-24T12:19:11;100303.81;;;29.01;100.00
44765;BME280;30484;52.382;5.260;2023-07-24T12:21:41;100285.19;;;29.17;100.00
44765;BME280;30484;52.382;5.260;2023-07-24T12:24:10;100284.19;;;28.78;100.00
44765;BME280;30484;52.382;5.260;2023-07-24T12:26:38;100290.81;;;28.15;100.00
44765;BME280;30484;52.382;5.260;2023-07-24T12:29:06;100285.25;;;28.01;100.00
44765;BME280;30484;52.382;5.260;2023-07-24T12:31:35;100278.66;;;28.64;100.00
44765;BME280;30484;52.382;5.260;2023-07-24T12:34:04;100276.13;;;28.83;100.00
44765;BME280;30484;52.382;5.260;2023-07-24T12:36:32;100282.22;;;29.45;100.00
44765;BME280;30484;52.382;5.260;2023-07-24T12:39:03;100290.59;;;29.84;100.00
44765;BME280;30484;52.382;5.260;2023-07-24T12:41:31;100300.31;;;29.93;100.00
44765;BME280;30484;52.382;5.260;2023-07-24T12:44:00;100311.22;;;28.94;100.00
44765;BME280;30484;52.382;5.260;2023-07-24T12:46:29;100304.47;;;29.23;100.00
44765;BME280;30484;52.382;5.260;2023-07-24T12:48:57;100300.84;;;29.09;100.00
44765;BME280;30484;52.382;5.260;2023-07-24T12:51:26;100305.72;;;29.14;100.00
44765;BME280;30484;52.382;5.260;2023-07-24T12:53:55;100304.66;;;28.68;100.00
44765;BME280;30484;52.382;5.260;2023-07-24T12:56:45;100298.97;;;29.03;100.00